Time;durP1;ratioP1;P1;durP2;ratioP2;P2;SDS_P1;SDS_P2;PMS_P1;PMS_P2;Temp;Humidity;BMP_temperature;BMP_pressure;BME280_temperature;BME280_humidity;BME280_pressure;Samples;Min_cycle;Max_cycle;Signal;HPM_P1;HPM_P2
2021/05/12 00:00:22;;;;;;;12.85;6.13;;;11.10;99.90;;;;;;5042365;28;20125;-66
2021/05/12 00:02:48;;;;;;;13.30;6.80;;;11.00;99.90;;;;;;5027415;28;20021;-68
2021/05/12 00:05:16;;;;;;;14.52;6.22;;;11.00;99.90;;;;;;5039604;28;20041;-66
2021/05/12 00:07:41;;;;;;;16.60;6.03;;;11.00;99.90;;;;;;5038514;28;20029;-66
2021/05/12 00:10:10;;;;;;;14.38;6.63;;;11.00;99.90;;;;;;5037974;28;20410;-66
2021/05/12 00:12:35;;;;;;;16.05;7.45;;;11.10;99.90;;;;;;5034746;28;20750;-69
2021/05/12 00:15:04;;;;;;;15.80;6.05;;;11.10;99.90;;;;;;5038501;28;20029;-68
2021/05/12 00:17:30;;;;;;;17.67;6.80;;;11.20;99.90;;;;;;5039327;28;20048;-67
2021/05/12 00:19:58;;;;;;;12.25;6.07;;;11.20;99.90;;;;;;5039350;28;20075;-65
2021/05/12 00:22:44;;;;;;;15.00;6.68;;;11.20;99.90;;;;;;5036619;28;20037;-66
2021/05/12 00:25:10;;;;;;;15.98;6.03;;;11.20;99.90;;;;;;5035586;28;20048;-67
2021/05/12 00:27:36;;;;;;;12.75;6.50;;;11.30;99.90;;;;;;5037557;28;20498;-67
2021/05/12 00:30:05;;;;;;;15.50;6.70;;;11.30;99.90;;;;;;5037545;28;20086;-65
2021/05/12 00:32:31;;;;;;;14.38;6.50;;;11.30;99.90;;;;;;5037855;28;20136;-66
2021/05/12 00:34:56;;;;;;;12.38;6.90;;;11.30;99.90;;;;;;5043565;28;20125;-67
2021/05/12 00:37:22;;;;;;;13.25;6.25;;;11.40;99.90;;;;;;5025783;28;20072;-67
2021/05/12 00:39:47;;;;;;;12.82;5.75;;;11.40;99.90;;;;;;5035561;28;20038;-66
2021/05/12 00:42:13;;;;;;;13.65;5.93;;;11.40;99.90;;;;;;5036562;28;20885;-68
2021/05/12 00:44:39;;;;;;;15.90;7.00;;;11.40;99.90;;;;;;5034164;28;20371;-66
2021/05/12 00:47:05;;;;;;;12.05;6.43;;;11.50;99.90;;;;;;5034451;28;20116;-67
2021/05/12 00:49:33;;;;;;;14.68;6.20;;;11.40;99.90;;;;;;5033523;28;20414;-66
2021/05/12 00:51:59;;;;;;;16.25;6.68;;;11.50;99.90;;;;;;5038120;28;20553;-68
2021/05/12 00:54:24;;;;;;;16.45;6.47;;;11.50;99.90;;;;;;5034449;28;20053;-65
2021/05/12 00:56:51;;;;;;;18.38;6.43;;;11.50;99.90;;;;;;5038389;28;20603;-65
2021/05/12 00:59:17;;;;;;;12.77;6.55;;;11.50;99.90;;;;;;5035415;28;20041;-66
2021/05/12 01:01:42;;;;;;;19.98;7.20;;;11.50;99.90;;;;;;5035818;28;20090;-66
2021/05/12 01:04:08;;;;;;;13.18;6.40;;;11.50;99.90;;;;;;5035077;28;20049;-66
2021/05/12 01:06:38;;;;;;;11.45;6.10;;;11.40;99.90;;;;;;5036621;28;20059;-66
2021/05/12 01:09:08;;;;;;;20.83;7.40;;;11.40;99.90;;;;;;5034044;28;20142;-66
2021/05/12 01:11:34;;;;;;;15.43;7.32;;;11.40;99.90;;;;;;5037026;28;20056;-68
2021/05/12 01:14:00;;;;;;;14.95;7.05;;;11.30;99.90;;;;;;5034312;28;20026;-67
2021/05/12 01:16:26;;;;;;;13.95;7.65;;;11.30;99.90;;;;;;5036968;28;20062;-67
2021/05/12 01:18:52;;;;;;;21.30;9.02;;;11.30;99.90;;;;;;5034213;28;20174;-68
2021/05/12 01:21:18;;;;;;;15.65;7.70;;;11.30;99.90;;;;;;5026532;28;20490;-66
2021/05/12 01:23:48;;;;;;;22.48;7.85;;;11.30;99.90;;;;;;5032932;28;20538;-66
2021/05/12 01:26:22;;;;;;;15.60;7.72;;;11.20;99.90;;;;;;5035407;28;20493;-67
2021/05/12 01:28:51;;;;;;;14.98;7.65;;;11.20;99.90;;;;;;5025926;28;20063;-66
2021/05/12 01:31:28;;;;;;;19.15;8.75;;;11.20;99.90;;;;;;5034982;28;20143;-66
2021/05/12 01:33:54;;;;;;;18.00;7.72;;;11.20;99.90;;;;;;5040566;28;20047;-67
2021/05/12 01:36:20;;;;;;;24.15;7.57;;;11.10;99.90;;;;;;5026935;28;20041;-67
2021/05/12 01:38:47;;;;;;;15.18;7.72;;;11.10;99.90;;;;;;5036830;28;20034;-66
2021/05/12 01:41:13;;;;;;;18.38;7.75;;;11.00;99.90;;;;;;5037213;28;20103;-65
2021/05/12 01:43:39;;;;;;;17.13;7.95;;;10.90;99.90;;;;;;5036153;28;20032;-67
2021/05/12 01:46:05;;;;;;;14.82;7.75;;;10.90;99.90;;;;;;5054729;28;20043;-66
2021/05/12 01:48:32;;;;;;;15.32;7.20;;;10.80;99.90;;;;;;5040943;28;20033;-66
2021/05/12 01:50:58;;;;;;;17.65;8.07;;;10.80;99.90;;;;;;5033704;28;20037;-67
2021/05/12 01:53:24;;;;;;;17.33;7.30;;;10.80;99.90;;;;;;5044336;28;20430;-66
2021/05/12 01:55:50;;;;;;;16.60;7.03;;;10.80;99.90;;;;;;5039743;28;20067;-67
2021/05/12 01:58:18;;;;;;;14.98;7.30;;;10.70;99.90;;;;;;5038145;28;20040;-67
2021/05/12 02:00:46;;;;;;;13.70;7.53;;;10.70;99.90;;;;;;5042185;28;20029;-66
2021/05/12 02:03:11;;;;;;;16.08;7.43;;;10.70;99.90;;;;;;5040601;28;20112;-66
2021/05/12 02:05:38;;;;;;;14.65;7.53;;;10.70;99.90;;;;;;5039310;28;20119;-64
2021/05/12 02:08:09;;;;;;;18.52;7.60;;;10.70;99.90;;;;;;5037509;28;20041;-68
2021/05/12 02:10:37;;;;;;;16.23;7.55;;;10.60;99.90;;;;;;5039732;28;20033;-68
2021/05/12 02:13:03;;;;;;;13.48;7.57;;;10.70;99.90;;;;;;5040994;28;20091;-65
2021/05/12 02:15:29;;;;;;;18.45;7.40;;;10.60;99.90;;;;;;5027715;28;20095;-67
2021/05/12 02:17:55;;;;;;;17.17;7.25;;;10.60;99.90;;;;;;5041673;28;20041;-68
2021/05/12 02:20:24;;;;;;;26.00;8.82;;;10.60;99.90;;;;;;5040331;28;20067;-67
2021/05/12 02:22:50;;;;;;;16.50;7.03;;;10.60;99.90;;;;;;5036895;28;20127;-66
2021/05/12 02:25:16;;;;;;;17.15;8.27;;;10.60;99.90;;;;;;5039167;28;20179;-66
2021/05/12 02:27:41;;;;;;;16.83;8.02;;;10.60;99.90;;;;;;5038062;28;20029;-66
2021/05/12 02:30:09;;;;;;;19.77;9.38;;;10.60;99.90;;;;;;5038312;28;20118;-66
2021/05/12 02:32:34;;;;;;;21.23;8.35;;;10.50;99.90;;;;;;5038975;28;20025;-66
2021/05/12 02:35:00;;;;;;;17.10;7.70;;;10.50;99.90;;;;;;5036782;28;20041;-66
2021/05/12 02:37:26;;;;;;;15.65;8.23;;;10.50;99.90;;;;;;5047393;28;20698;-66
2021/05/12 02:39:53;;;;;;;19.65;8.70;;;10.50;99.90;;;;;;5043289;28;20033;-66
2021/05/12 02:42:19;;;;;;;14.07;7.88;;;10.50;99.90;;;;;;5035876;28;20559;-66
2021/05/12 02:44:44;;;;;;;15.25;7.78;;;10.40;99.90;;;;;;5037346;28;20037;-66
2021/05/12 02:47:10;;;;;;;18.15;7.97;;;10.40;99.90;;;;;;5038145;28;20029;-65
2021/05/12 02:49:36;;;;;;;17.95;8.68;;;10.40;99.90;;;;;;5027999;28;20722;-65
2021/05/12 02:52:03;;;;;;;19.90;8.40;;;10.30;99.90;;;;;;5043699;28;20040;-66
2021/05/12 02:54:28;;;;;;;15.07;7.78;;;10.40;99.90;;;;;;5039759;28;20148;-67
2021/05/12 02:56:54;;;;;;;19.55;7.35;;;10.40;99.90;;;;;;5038925;28;20564;-66
2021/05/12 02:59:20;;;;;;;15.23;7.18;;;10.40;99.90;;;;;;5031891;28;20045;-67
2021/05/12 03:01:45;;;;;;;12.65;6.82;;;10.30;99.90;;;;;;5047389;28;20029;-67
2021/05/12 03:04:11;;;;;;;15.57;6.82;;;10.30;99.90;;;;;;5042065;28;20112;-66
2021/05/12 03:06:36;;;;;;;16.23;7.32;;;10.30;99.90;;;;;;5031076;28;20032;-66
2021/05/12 03:09:04;;;;;;;13.23;6.13;;;10.20;99.90;;;;;;5036206;28;20037;-68
2021/05/12 03:11:30;;;;;;;14.88;6.40;;;10.20;99.90;;;;;;5038199;28;20029;-66
2021/05/12 03:13:56;;;;;;;14.10;6.57;;;10.20;99.90;;;;;;5035503;28;20025;-67
2021/05/12 03:16:21;;;;;;;12.40;5.70;;;10.10;99.90;;;;;;5039307;28;20041;-66
2021/05/12 03:18:47;;;;;;;12.23;6.57;;;10.10;99.90;;;;;;5035603;28;20076;-66
2021/05/12 03:21:13;;;;;;;15.85;7.32;;;10.10;99.90;;;;;;5037636;28;20033;-65
2021/05/12 03:23:38;;;;;;;16.88;7.20;;;10.10;99.90;;;;;;5027127;28;20043;-65
2021/05/12 03:26:04;;;;;;;11.98;6.78;;;10.00;99.90;;;;;;5036230;28;20041;-66
2021/05/12 03:28:30;;;;;;;13.57;7.07;;;10.00;99.90;;;;;;5027909;28;20053;-66
2021/05/12 03:30:56;;;;;;;15.93;6.57;;;10.00;99.90;;;;;;5035013;28;20114;-69
2021/05/12 03:33:21;;;;;;;14.07;6.88;;;9.90;99.90;;;;;;5038549;28;20147;-65
2021/05/12 03:35:47;;;;;;;12.80;6.47;;;9.90;99.90;;;;;;5035729;28;20513;-65
2021/05/12 03:38:13;;;;;;;18.17;6.38;;;9.80;99.90;;;;;;5043980;28;20037;-66
2021/05/12 03:40:39;;;;;;;12.52;6.65;;;9.80;99.90;;;;;;5026746;28;20566;-67
2021/05/12 03:43:05;;;;;;;15.45;6.32;;;9.70;99.90;;;;;;5035889;28;20441;-67
2021/05/12 03:45:31;;;;;;;14.77;6.18;;;9.70;99.90;;;;;;5037639;28;20025;-66
2021/05/12 03:47:57;;;;;;;20.67;7.78;;;9.70;99.90;;;;;;5034727;28;20026;-66
2021/05/12 03:50:25;;;;;;;13.82;5.95;;;9.70;99.90;;;;;;5038054;28;20783;-65
2021/05/12 03:52:51;;;;;;;10.82;5.65;;;9.70;99.90;;;;;;5048673;28;20021;-65
2021/05/12 03:55:17;;;;;;;12.63;6.45;;;9.70;99.90;;;;;;5034423;28;20141;-65
2021/05/12 03:57:44;;;;;;;10.13;5.22;;;9.60;99.90;;;;;;5036606;28;20639;-69
2021/05/12 04:00:11;;;;;;;14.50;5.35;;;9.60;99.90;;;;;;5025704;28;20056;-66
2021/05/12 04:02:36;;;;;;;14.13;6.18;;;9.60;99.90;;;;;;5036620;28;20038;-66
2021/05/12 04:05:03;;;;;;;13.20;4.78;;;9.50;99.90;;;;;;5036077;28;20043;-69
2021/05/12 04:07:28;;;;;;;15.52;4.50;;;9.60;99.90;;;;;;5025457;28;20044;-66
2021/05/12 04:09:55;;;;;;;13.50;4.60;;;9.60;99.90;;;;;;5027558;28;20402;-66
2021/05/12 04:12:21;;;;;;;11.18;4.35;;;9.60;99.90;;;;;;5037477;28;20043;-66
2021/05/12 04:14:46;;;;;;;10.40;4.93;;;9.60;99.90;;;;;;5033550;28;20033;-66
2021/05/12 04:17:12;;;;;;;17.02;4.50;;;9.60;99.90;;;;;;5034703;28;20044;-67
2021/05/12 04:19:38;;;;;;;9.00;3.75;;;9.50;99.90;;;;;;5036127;28;20461;-66
2021/05/12 04:22:03;;;;;;;11.00;3.85;;;9.50;99.90;;;;;;5026105;28;20073;-65
2021/05/12 04:24:30;;;;;;;14.40;3.97;;;9.50;99.90;;;;;;5039426;28;20030;-66
2021/05/12 04:26:55;;;;;;;12.35;4.70;;;9.50;99.90;;;;;;5027722;28;20033;-65
2021/05/12 04:29:21;;;;;;;12.38;4.35;;;9.50;99.90;;;;;;5037304;28;20055;-67
2021/05/12 04:31:47;;;;;;;10.57;4.70;;;9.50;99.90;;;;;;5036710;28;20040;-66
2021/05/12 04:34:13;;;;;;;8.55;3.88;;;9.50;99.90;;;;;;5034049;28;20029;-65
2021/05/12 04:36:39;;;;;;;11.70;4.72;;;9.50;99.90;;;;;;5049786;28;20037;-65
2021/05/12 04:39:06;;;;;;;10.10;4.88;;;9.50;99.90;;;;;;5036249;28;20050;-66
2021/05/12 04:41:32;;;;;;;9.77;4.93;;;9.60;99.90;;;;;;5035711;28;20451;-67
2021/05/12 04:43:58;;;;;;;9.20;4.18;;;9.60;99.90;;;;;;5035645;28;20033;-67
2021/05/12 04:46:25;;;;;;;10.65;4.30;;;9.60;99.90;;;;;;5032811;28;20384;-67
2021/05/12 04:48:51;;;;;;;14.27;5.10;;;9.70;99.90;;;;;;5016428;28;20048;-65
2021/05/12 04:51:17;;;;;;;12.57;4.45;;;9.70;99.90;;;;;;5033582;28;20075;-66
2021/05/12 04:53:42;;;;;;;11.82;4.45;;;9.80;99.90;;;;;;5024772;28;20056;-66
2021/05/12 04:56:08;;;;;;;12.80;4.53;;;9.80;99.90;;;;;;5046489;28;20389;-66
2021/05/12 04:58:34;;;;;;;15.68;5.30;;;9.80;99.90;;;;;;5040786;28;20033;-66
2021/05/12 05:00:59;;;;;;;16.40;5.05;;;9.90;99.90;;;;;;5039894;28;20196;-69
2021/05/12 05:03:25;;;;;;;14.35;5.10;;;10.00;99.90;;;;;;5039104;28;20052;-67
2021/05/12 05:05:51;;;;;;;22.58;5.05;;;10.20;99.90;;;;;;5042579;28;20033;-65
2021/05/12 05:08:16;;;;;;;11.95;5.15;;;10.30;99.90;;;;;;5043234;28;20040;-66
2021/05/12 05:10:42;;;;;;;12.30;4.80;;;10.40;99.90;;;;;;5040759;28;20566;-66
2021/05/12 05:13:08;;;;;;;11.85;4.78;;;10.50;99.90;;;;;;5036835;28;20068;-65
2021/05/12 05:15:34;;;;;;;16.05;4.95;;;10.60;99.90;;;;;;5036576;28;20047;-65
2021/05/12 05:17:59;;;;;;;14.43;6.45;;;10.70;99.90;;;;;;5039414;28;20453;-69
2021/05/12 05:20:27;;;;;;;12.45;4.78;;;10.80;99.90;;;;;;5040252;28;20124;-67
2021/05/12 05:22:53;;;;;;;13.60;4.88;;;10.80;99.90;;;;;;5043332;28;20111;-66
2021/05/12 05:25:19;;;;;;;15.52;5.43;;;10.80;99.90;;;;;;5042182;28;20040;-66
2021/05/12 05:27:44;;;;;;;15.45;5.90;;;10.80;99.90;;;;;;5045785;28;20124;-69
2021/05/12 05:30:10;;;;;;;11.43;4.95;;;10.90;99.90;;;;;;5044545;28;20037;-67
2021/05/12 05:32:36;;;;;;;12.25;5.30;;;10.90;99.90;;;;;;5041245;28;20133;-66
2021/05/12 05:35:02;;;;;;;10.70;4.65;;;11.10;99.90;;;;;;5042229;28;20121;-66
2021/05/12 05:37:27;;;;;;;11.15;4.97;;;11.40;99.90;;;;;;5046488;28;20067;-66
2021/05/12 05:39:55;;;;;;;13.80;4.55;;;11.70;99.90;;;;;;5024845;28;20083;-66
2021/05/12 05:42:21;;;;;;;9.70;4.07;;;12.40;99.90;;;;;;5041091;28;20855;-67
2021/05/12 05:44:48;;;;;;;12.23;3.85;;;13.30;99.90;;;;;;5039918;28;20029;-65
2021/05/12 05:47:14;;;;;;;9.10;3.95;;;14.30;99.90;;;;;;5042158;28;20037;-69
2021/05/12 05:49:39;;;;;;;6.40;3.70;;;15.40;99.90;;;;;;5024939;28;20041;-69
2021/05/12 05:52:05;;;;;;;7.05;3.58;;;16.30;99.90;;;;;;5043000;28;20033;-67
2021/05/12 05:54:31;;;;;;;13.52;3.67;;;16.90;99.90;;;;;;5044063;28;20483;-67
2021/05/12 05:57:03;;;;;;;9.05;3.33;;;17.40;99.90;;;;;;5046104;28;20040;-68
2021/05/12 05:59:28;;;;;;;7.35;3.17;;;17.90;99.90;;;;;;5039902;28;20209;-68
2021/05/12 06:01:55;;;;;;;12.35;3.42;;;18.60;99.90;;;;;;5040910;28;20037;-68
2021/05/12 06:04:23;;;;;;;6.50;2.78;;;19.20;99.90;;;;;;5044125;28;20040;-70
2021/05/12 06:06:49;;;;;;;10.38;3.33;;;20.10;99.90;;;;;;5045052;28;20056;-69
2021/05/12 06:09:15;;;;;;;9.05;3.05;;;21.10;99.90;;;;;;5038443;28;20106;-70
2021/05/12 06:11:40;;;;;;;10.90;3.70;;;21.90;96.00;;;;;;5038875;28;20033;-68
2021/05/12 06:14:06;;;;;;;7.68;3.47;;;22.30;92.50;;;;;;5045282;28;20048;-67
2021/05/12 06:16:31;;;;;;;8.98;3.30;;;23.00;87.20;;;;;;5027362;28;20036;-69
2021/05/12 06:18:57;;;;;;;11.02;4.75;;;23.40;84.20;;;;;;5044092;28;20043;-68
2021/05/12 06:21:25;;;;;;;8.98;3.58;;;24.20;78.10;;;;;;5044195;28;20121;-69
2021/05/12 06:23:50;;;;;;;10.02;3.08;;;24.30;73.00;;;;;;5045939;28;20037;-68
2021/05/12 06:26:17;;;;;;;8.95;3.60;;;24.30;69.70;;;;;;5042723;28;20049;-68
2021/05/12 06:28:44;;;;;;;11.13;3.70;;;24.50;67.80;;;;;;5041706;28;20442;-67
2021/05/12 06:31:10;;;;;;;11.48;3.17;;;24.50;67.70;;;;;;5038814;28;20232;-68
2021/05/12 06:33:38;;;;;;;9.32;2.92;;;24.30;66.90;;;;;;5041244;28;20036;-67
2021/05/12 06:36:05;;;;;;;10.38;4.18;;;24.70;66.90;;;;;;5044235;28;20392;-68
2021/05/12 06:38:30;;;;;;;12.60;3.28;;;25.20;63.30;;;;;;5044539;28;20040;-69
2021/05/12 06:40:56;;;;;;;11.25;3.17;;;25.40;62.60;;;;;;5039904;28;20033;-66
2021/05/12 06:43:21;;;;;;;7.90;3.08;;;25.20;61.70;;;;;;5045653;28;20384;-67
2021/05/12 06:45:47;;;;;;;10.52;3.20;;;25.00;61.90;;;;;;5043109;28;20387;-66
2021/05/12 06:48:13;;;;;;;12.93;3.80;;;25.50;59.90;;;;;;5037885;28;20043;-69
2021/05/12 06:50:38;;;;;;;7.85;3.15;;;25.70;60.90;;;;;;5038766;28;20450;-67
2021/05/12 06:53:04;;;;;;;11.10;3.45;;;26.00;58.90;;;;;;5043296;28;20128;-67
2021/05/12 06:55:30;;;;;;;12.77;3.53;;;25.90;58.30;;;;;;5044683;28;20049;-71
2021/05/12 06:57:55;;;;;;;13.23;3.08;;;26.30;58.50;;;;;;5041678;28;20029;-68
2021/05/12 07:00:21;;;;;;;8.60;2.90;;;26.50;56.90;;;;;;5042435;28;20045;-68
2021/05/12 07:02:47;;;;;;;10.55;3.20;;;26.80;54.90;;;;;;5036864;28;20025;-68
2021/05/12 07:05:17;;;;;;;11.75;3.63;;;26.20;57.40;;;;;;5042892;28;20045;-68
2021/05/12 07:07:43;;;;;;;10.70;2.60;;;26.70;57.20;;;;;;5042998;28;20513;-68
2021/05/12 07:10:10;;;;;;;9.35;2.78;;;26.60;55.10;;;;;;5041737;28;20061;-68
2021/05/12 07:12:36;;;;;;;10.20;2.35;;;26.90;54.10;;;;;;5024886;28;20041;-68
2021/05/12 07:15:03;;;;;;;13.82;2.80;;;26.50;54.90;;;;;;5040577;28;20943;-67
2021/05/12 07:17:29;;;;;;;8.32;2.72;;;26.50;53.80;;;;;;5023955;28;20040;-67
2021/05/12 07:19:55;;;;;;;11.32;2.60;;;26.30;54.10;;;;;;5043623;28;20033;-68
2021/05/12 07:22:21;;;;;;;13.50;2.72;;;26.60;51.90;;;;;;5046423;28;20472;-67
2021/05/12 07:24:47;;;;;;;10.55;2.53;;;26.50;53.60;;;;;;5040524;28;20033;-67
2021/05/12 07:27:13;;;;;;;10.45;2.67;;;26.80;52.10;;;;;;5044339;28;20447;-66
2021/05/12 07:29:38;;;;;;;12.13;2.97;;;27.10;50.20;;;;;;5047634;28;20056;-66
2021/05/12 07:32:04;;;;;;;9.57;3.03;;;27.60;50.00;;;;;;5038703;28;20122;-67
2021/05/12 07:34:30;;;;;;;13.00;2.58;;;27.20;51.60;;;;;;5044497;28;20110;-69
2021/05/12 07:36:55;;;;;;;11.93;2.55;;;27.60;51.00;;;;;;5047105;28;20812;-66
2021/05/12 07:39:21;;;;;;;11.25;2.55;;;27.00;49.70;;;;;;5044503;28;20029;-67
2021/05/12 07:41:50;;;;;;;8.30;2.10;;;26.90;49.40;;;;;;5040692;28;20036;-69
2021/05/12 07:44:15;;;;;;;9.82;2.58;;;27.00;49.10;;;;;;5043786;28;20052;-66
2021/05/12 07:46:41;;;;;;;10.23;2.70;;;27.20;49.30;;;;;;5043821;28;20033;-67
2021/05/12 07:49:06;;;;;;;9.90;2.40;;;27.10;50.10;;;;;;5045437;28;20041;-68
2021/05/12 07:51:32;;;;;;;7.60;2.10;;;27.20;49.90;;;;;;5043995;28;20120;-69
2021/05/12 07:53:58;;;;;;;7.18;2.20;;;27.20;49.10;;;;;;5045621;28;20068;-69
2021/05/12 07:56:24;;;;;;;11.05;2.13;;;27.10;49.30;;;;;;5039879;28;20320;-69
2021/05/12 07:58:50;;;;;;;7.60;2.55;;;27.50;50.70;;;;;;5044009;28;20036;-68
2021/05/12 08:01:21;;;;;;;6.97;1.85;;;27.00;49.50;;;;;;5043162;28;20132;-69
2021/05/12 08:03:47;;;;;;;10.38;2.33;;;26.00;48.60;;;;;;5043668;28;20031;-70
2021/05/12 08:06:13;;;;;;;10.18;1.90;;;25.60;50.30;;;;;;5038580;28;20362;-68
2021/05/12 08:08:39;;;;;;;8.55;2.33;;;25.80;51.30;;;;;;5042298;28;20131;-68
2021/05/12 08:11:07;;;;;;;8.15;2.28;;;25.80;49.50;;;;;;5046511;28;20254;-68
2021/05/12 08:13:33;;;;;;;4.70;1.45;;;25.80;49.20;;;;;;5044867;28;20079;-67
2021/05/12 08:15:59;;;;;;;8.77;2.15;;;25.70;49.20;;;;;;5040269;28;20523;-68
2021/05/12 08:18:25;;;;;;;5.88;1.50;;;25.30;49.40;;;;;;5026324;28;20935;-67
2021/05/12 08:20:56;;;;;;;7.97;1.65;;;24.90;51.50;;;;;;5040749;28;20055;-66
2021/05/12 08:23:23;;;;;;;5.85;1.33;;;24.10;51.30;;;;;;5041209;28;20410;-67
2021/05/12 08:25:48;;;;;;;4.97;0.90;;;24.00;52.10;;;;;;5044981;28;20025;-67
2021/05/12 08:28:14;;;;;;;9.73;1.25;;;23.70;53.40;;;;;;5040172;28;20086;-68
2021/05/12 08:30:44;;;;;;;10.15;1.33;;;23.20;54.40;;;;;;5037492;28;20033;-67
2021/05/12 08:33:11;;;;;;;6.95;0.93;;;23.10;53.00;;;;;;5035707;28;20101;-68
2021/05/12 08:35:40;;;;;;;5.57;1.35;;;22.70;53.90;;;;;;5037483;28;20033;-67
2021/05/12 08:38:05;;;;;;;5.75;0.93;;;22.60;54.60;;;;;;5041069;28;20428;-67
2021/05/12 08:40:31;;;;;;;3.72;1.08;;;22.30;55.60;;;;;;5036040;28;20104;-68
2021/05/12 08:42:57;;;;;;;6.47;0.88;;;22.20;56.30;;;;;;5042015;28;20117;-67
2021/05/12 08:45:24;;;;;;;4.82;0.85;;;21.90;55.70;;;;;;5040297;28;20112;-67
2021/05/12 08:47:54;;;;;;;6.82;0.90;;;21.50;54.50;;;;;;5037302;28;20115;-67
2021/05/12 08:50:21;;;;;;;7.10;1.02;;;21.30;56.30;;;;;;5042273;28;20045;-67
2021/05/12 08:52:48;;;;;;;9.40;1.75;;;21.10;57.20;;;;;;5041071;28;20048;-67
2021/05/12 08:55:14;;;;;;;9.20;1.20;;;21.00;58.80;;;;;;5044380;28;20047;-67
2021/05/12 08:57:40;;;;;;;4.68;0.73;;;21.00;58.10;;;;;;5045504;28;20075;-68
2021/05/12 09:00:06;;;;;;;4.18;1.02;;;20.90;58.40;;;;;;5044249;28;20041;-68
2021/05/12 09:02:32;;;;;;;2.90;0.57;;;20.70;58.10;;;;;;5043823;28;20045;-66
2021/05/12 09:04:57;;;;;;;6.72;0.90;;;20.90;59.90;;;;;;5044717;28;20186;-69
2021/05/12 09:07:23;;;;;;;4.35;1.00;;;20.90;58.60;;;;;;5043909;28;20156;-68
2021/05/12 09:09:50;;;;;;;5.53;0.75;;;20.90;59.00;;;;;;5040409;28;20044;-68
2021/05/12 09:12:16;;;;;;;9.55;1.13;;;20.90;60.80;;;;;;5043598;28;20098;-68
2021/05/12 09:14:42;;;;;;;4.68;1.17;;;21.00;60.20;;;;;;5040161;28;20411;-68
2021/05/12 09:17:08;;;;;;;6.80;1.52;;;21.20;61.00;;;;;;5041189;28;20033;-67
2021/05/12 09:19:34;;;;;;;3.97;0.73;;;21.20;59.40;;;;;;5044163;28;20390;-68
2021/05/12 09:22:01;;;;;;;5.28;0.90;;;21.20;60.00;;;;;;5041513;28;20060;-69
2021/05/12 09:24:38;;;;;;;10.10;1.38;;;21.20;59.70;;;;;;5046799;28;20036;-69
2021/05/12 09:27:16;;;;;;;5.85;0.85;;;21.20;61.10;;;;;;5041827;28;20093;-69
2021/05/12 09:29:43;;;;;;;9.30;1.48;;;21.00;62.60;;;;;;5042901;28;20033;-68
2021/05/12 09:32:13;;;;;;;7.70;1.23;;;20.70;64.50;;;;;;5044485;28;20204;-69
2021/05/12 09:34:55;;;;;;;8.10;1.38;;;20.30;63.50;;;;;;5042186;28;20037;-69
2021/05/12 09:37:32;;;;;;;13.70;1.25;;;20.00;64.10;;;;;;5044740;28;20040;-68
2021/05/12 09:40:00;;;;;;;5.93;1.02;;;19.70;64.40;;;;;;5046631;28;20528;-68
2021/05/12 09:42:26;;;;;;;12.48;1.00;;;19.50;64.90;;;;;;5043108;28;20033;-69
2021/05/12 09:45:19;;;;;;;5.25;1.20;;;19.50;65.80;;;;;;5028068;28;20099;-68
2021/05/12 09:47:46;;;;;;;4.95;1.38;;;19.60;66.00;;;;;;5039534;28;20032;-67
2021/05/12 09:50:25;;;;;;;5.63;0.85;;;19.70;67.60;;;;;;5040330;28;20126;-68
2021/05/12 09:52:52;;;;;;;4.70;1.02;;;20.00;64.70;;;;;;5039465;28;20044;-68
2021/05/12 09:55:17;;;;;;;5.15;1.05;;;20.10;62.90;;;;;;5045530;28;20516;-69
2021/05/12 09:57:59;;;;;;;6.53;1.20;;;20.00;65.50;;;;;;5023927;28;20075;-69
2021/05/12 10:00:32;;;;;;;7.90;1.38;;;20.00;64.20;;;;;;5043605;28;20478;-68
2021/05/12 10:02:59;;;;;;;8.75;1.48;;;19.90;65.60;;;;;;5025174;28;20037;-68
2021/05/12 10:05:26;;;;;;;10.02;1.13;;;19.70;66.90;;;;;;5040492;28;20040;-67
2021/05/12 10:07:59;;;;;;;8.90;1.48;;;19.40;68.40;;;;;;5021411;28;20072;-67
2021/05/12 10:10:39;;;;;;;6.45;1.33;;;19.50;68.30;;;;;;5044597;28;20336;-68
2021/05/12 10:13:05;;;;;;;;;;;19.80;67.40;;;;;;5050495;28;20123;-68
2021/05/12 10:15:32;;;;;;;4.78;1.65;;;19.80;66.40;;;;;;5045607;28;19916;-70
2021/05/12 10:17:58;;;;;;;7.38;1.40;;;20.00;66.50;;;;;;5044738;28;20416;-69
2021/05/12 10:20:24;;;;;;;7.55;1.88;;;20.00;69.40;;;;;;5047496;28;20401;-68
2021/05/12 10:22:53;;;;;;;5.93;1.58;;;20.10;68.80;;;;;;5039068;28;20091;-66
2021/05/12 10:25:19;;;;;;;8.98;1.48;;;19.80;65.90;;;;;;5042657;28;20044;-68
2021/05/12 10:27:47;;;;;;;6.80;1.42;;;19.70;69.60;;;;;;5040909;28;20033;-68
2021/05/12 10:30:14;;;;;;;3.88;1.10;;;19.80;70.40;;;;;;5043685;28;20128;-68
2021/05/12 10:32:48;;;;;;;4.13;0.95;;;19.90;67.60;;;;;;5041135;28;20072;-69
2021/05/12 10:35:16;;;;;;;8.77;1.75;;;20.00;67.10;;;;;;5041917;28;20537;-67
2021/05/12 10:37:46;;;;;;;6.63;1.25;;;19.90;66.80;;;;;;5024753;28;20053;-68
2021/05/12 10:40:24;;;;;;;9.57;1.30;;;19.80;67.00;;;;;;5038893;28;20451;-67
2021/05/12 10:45:31;;;;;;;5.97;1.30;;;20.10;65.70;;;;;;5036190;28;20034;-68
2021/05/12 10:47:57;;;;;;;7.95;1.27;;;20.40;66.30;;;;;;5043341;28;20033;-68
2021/05/12 10:50:42;;;;;;;7.22;1.40;;;20.50;63.70;;;;;;5020964;28;20044;-69
2021/05/12 10:53:23;;;;;;;7.80;1.50;;;20.50;64.90;;;;;;5040824;28;20413;-68
2021/05/12 10:55:58;;;;;;;5.38;1.38;;;20.30;66.80;;;;;;5043293;28;20515;-67
2021/05/12 10:58:29;;;;;;;10.27;1.45;;;20.20;65.20;;;;;;5039551;28;20064;-67
2021/05/12 11:00:56;;;;;;;6.57;1.50;;;20.00;66.50;;;;;;5041845;28;20039;-69
2021/05/12 11:03:22;;;;;;;6.00;1.60;;;20.10;67.60;;;;;;5037746;28;20037;-67
2021/05/12 11:05:56;;;;;;;7.40;1.58;;;20.10;70.00;;;;;;5033431;28;20044;-67
2021/05/12 11:08:22;;;;;;;8.48;1.60;;;20.10;68.90;;;;;;5041191;28;20037;-67
2021/05/12 11:10:53;;;;;;;4.97;1.67;;;20.10;68.00;;;;;;5041690;28;20043;-68
2021/05/12 11:13:24;;;;;;;6.55;1.80;;;19.90;66.50;;;;;;5039425;28;20041;-68
2021/05/12 11:15:58;;;;;;;7.90;1.77;;;19.80;68.30;;;;;;5022186;28;20506;-69
2021/05/12 11:18:40;;;;;;;8.10;1.88;;;19.90;71.90;;;;;;5038555;28;20064;-68
2021/05/12 11:21:18;;;;;;;5.45;1.95;;;20.00;69.10;;;;;;5029284;28;20529;-67
2021/05/12 11:24:03;;;;;;;3.72;0.90;;;20.40;68.60;;;;;;5040103;28;20115;-68
2021/05/12 11:27:18;;;;;;;4.68;1.17;;;20.80;67.40;;;;;;5034958;28;20034;-68
2021/05/12 11:32:06;;;;;;;4.43;0.90;;;20.90;61.10;;;;;;5042152;28;20040;-68
2021/05/12 11:34:32;;;;;;;4.45;1.20;;;20.90;62.50;;;;;;5038212;28;20060;-68
2021/05/12 11:37:11;;;;;;;4.82;1.42;;;20.80;63.00;;;;;;5044796;28;20037;-68
2021/05/12 11:39:37;;;;;;;9.80;1.20;;;20.60;62.80;;;;;;5039764;28;20064;-67
2021/05/12 11:42:03;;;;;;;5.25;1.00;;;20.50;62.90;;;;;;5043346;28;20375;-67
2021/05/12 11:44:29;;;;;;;6.63;1.25;;;20.40;62.60;;;;;;5040219;28;20737;-67
2021/05/12 11:46:54;;;;;;;6.20;1.30;;;20.10;61.70;;;;;;5043456;28;20645;-67
2021/05/12 11:49:28;;;;;;;7.53;1.23;;;20.00;63.50;;;;;;5043673;28;20045;-68
2021/05/12 11:51:58;;;;;;;7.15;0.80;;;20.00;64.40;;;;;;5035849;28;20029;-67
2021/05/12 11:54:25;;;;;;;7.35;1.20;;;20.00;63.50;;;;;;5038113;28;20037;-68
2021/05/12 11:56:54;;;;;;;5.15;1.38;;;20.10;65.00;;;;;;5040075;28;20116;-67
2021/05/12 11:59:23;;;;;;;13.75;2.05;;;20.20;62.90;;;;;;5039542;28;20414;-68
2021/05/12 12:02:02;;;;;;;5.03;0.70;;;20.50;62.60;;;;;;5040219;28;20029;-66
2021/05/12 12:06:55;;;;;;;6.70;1.00;;;20.40;59.80;;;;;;5040961;28;20151;-68
2021/05/12 12:09:21;;;;;;;5.72;0.88;;;20.50;59.70;;;;;;5042452;28;20574;-67
2021/05/12 12:11:48;;;;;;;3.28;0.68;;;20.50;60.70;;;;;;5038161;28;20037;-68
2021/05/12 12:14:14;;;;;;;1.98;0.70;;;20.40;61.20;;;;;;5039437;28;20187;-67
2021/05/12 12:16:44;;;;;;;6.50;0.95;;;20.40;60.10;;;;;;5037057;28;20037;-67
2021/05/12 12:19:18;;;;;;;4.03;0.73;;;20.30;61.30;;;;;;5038734;28;20045;-67
2021/05/12 12:21:49;;;;;;;6.88;0.90;;;20.20;59.60;;;;;;5037343;28;20048;-67
2021/05/12 12:24:17;;;;;;;5.60;0.90;;;20.20;61.20;;;;;;5040716;28;20406;-66
2021/05/12 12:26:52;;;;;;;7.32;1.15;;;20.30;62.00;;;;;;5037162;28;20506;-67
2021/05/12 12:29:20;;;;;;;4.63;0.95;;;20.50;62.30;;;;;;5036582;28;20037;-67
2021/05/12 12:31:48;;;;;;;7.57;1.00;;;20.70;61.80;;;;;;5036933;28;20029;-66
2021/05/12 12:34:18;;;;;;;7.05;0.98;;;20.50;61.90;;;;;;5042522;28;20037;-69
2021/05/12 12:37:26;;;;;;;7.50;1.35;;;20.90;62.20;;;;;;5042690;28;20032;-68
2021/05/12 12:40:01;;;;;;;5.35;0.90;;;20.90;59.80;;;;;;5038508;28;20060;-68
2021/05/12 12:42:31;;;;;;;5.53;0.80;;;20.90;58.80;;;;;;5037710;28;20045;-68
2021/05/12 12:44:58;;;;;;;4.30;1.10;;;20.90;60.80;;;;;;5038449;28;20044;-68
2021/05/12 12:47:25;;;;;;;3.08;0.93;;;20.70;60.20;;;;;;5040909;28;20040;-66
2021/05/12 12:49:57;;;;;;;5.80;1.10;;;20.60;58.10;;;;;;5038110;28;20374;-67
2021/05/12 12:52:30;;;;;;;6.80;0.82;;;20.40;58.60;;;;;;5044071;28;20456;-70